Bramham, United Kingdom
Current Conditions -  °F | °C
As of 2:50 AM on Tuesday 21 Oct 2014 (Local Time) from EGNM Reporting Station
Broken Clouds Broken Clouds  
Wind Chill: 12°   Ceiling: 1500
Heat Index: 12°   Visibility: 6mi
Dew Point: 10°   Wind: 18mph
Humidity: 88%   Direction: 220°SW
Pressure: 29.47"   Gusts: 32mph
Location:  53.88°N, 1.35°W
Report Text: EGNM 210150Z 22016G28KT 180V270 9999 BKN015 12/10 Q0998
Loading
Personal Weather Stations






























Interactive Weather Map
Tropical Storm Tracking
New forecast layout! Learn more

10-Day Weather Forecast

Advertisements
Track Severe Weather on mobile